Time;durP1;ratioP1;P1;durP2;ratioP2;P2;SDS_P1;SDS_P2;PMS_P1;PMS_P2;Temp;Humidity;BMP_temperature;BMP_pressure;BME280_temperature;BME280_humidity;BME280_pressure;Samples;Min_cycle;Max_cycle;Signal;HPM_P1;HPM_P2
2022/05/03 00:00:05;;;;;;;;;;;15.40;73.50;;;;;;5059592;28;20434;-68
2022/05/03 00:02:40;;;;;;;;;;;15.40;73.70;;;;;;5060178;28;20307;-69
2022/05/03 00:05:09;;;;;;;;;;;15.40;73.80;;;;;;5055589;28;20406;-69
2022/05/03 00:07:39;;;;;;;;;;;15.30;73.80;;;;;;5053553;28;19932;-68
2022/05/03 00:10:07;;;;;;;;;;;15.30;73.90;;;;;;5054035;28;20379;-68
2022/05/03 00:12:35;;;;;;;;;;;15.20;74.00;;;;;;5059261;28;19928;-67
2022/05/03 00:15:02;;;;;;;;;;;15.30;74.20;;;;;;5061773;28;20708;-68
2022/05/03 00:17:29;;;;;;;;;;;15.20;74.10;;;;;;5063217;28;19928;-68
2022/05/03 00:19:55;;;;;;;;;;;15.20;74.20;;;;;;5060946;28;19935;-68
2022/05/03 00:22:24;;;;;;;;;;;15.20;74.40;;;;;;5058389;28;20531;-67
2022/05/03 00:24:54;;;;;;;;;;;15.10;74.40;;;;;;5063126;28;19928;-68
2022/05/03 00:27:23;;;;;;;;;;;15.10;74.40;;;;;;5058113;28;20011;-68
2022/05/03 00:29:50;;;;;;;;;;;15.10;74.50;;;;;;5065132;28;19928;-68
2022/05/03 00:32:16;;;;;;;;;;;15.00;74.60;;;;;;5059053;28;20760;-68
2022/05/03 00:34:43;;;;;;;;;;;15.10;74.70;;;;;;5065234;28;19928;-69
2022/05/03 00:37:10;;;;;;;;;;;15.00;74.70;;;;;;5058149;28;20117;-67
2022/05/03 00:39:38;;;;;;;;;;;15.00;74.80;;;;;;5060423;28;19936;-67
2022/05/03 00:42:09;;;;;;;;;;;15.00;74.90;;;;;;5055634;28;19944;-69
2022/05/03 00:44:58;;;;;;;;;;;14.90;74.90;;;;;;5058746;28;20643;-67
2022/05/03 00:47:30;;;;;;;;;;;14.90;74.90;;;;;;5054830;28;20355;-68
2022/05/03 00:50:00;;;;;;;;;;;14.80;75.00;;;;;;5063395;28;19940;-69
2022/05/03 00:52:29;;;;;;;;;;;14.90;75.20;;;;;;5062325;28;19929;-68
2022/05/03 00:55:10;;;;;;;;;;;14.80;75.20;;;;;;5059640;28;20559;-68
2022/05/03 00:57:37;;;;;;;;;;;14.80;75.20;;;;;;5060518;28;19932;-67
2022/05/03 01:00:06;;;;;;;;;;;14.70;75.30;;;;;;5050640;28;19958;-68
2022/05/03 01:02:45;;;;;;;;;;;14.70;75.50;;;;;;5060851;28;20350;-68
2022/05/03 01:05:16;;;;;;;;;;;14.70;75.50;;;;;;5058028;28;19932;-67
2022/05/03 01:07:47;;;;;;;;;;;14.70;75.60;;;;;;5062099;28;19928;-67
2022/05/03 01:10:18;;;;;;;;;;;14.60;75.60;;;;;;5062546;28;19932;-67
2022/05/03 01:12:54;;;;;;;;;;;14.50;75.50;;;;;;5061953;28;19939;-68
2022/05/03 01:15:24;;;;;;;;;;;14.60;75.70;;;;;;5060461;28;19934;-67
2022/05/03 01:17:55;;;;;;;;;;;14.50;75.70;;;;;;5060765;28;19928;-68
2022/05/03 01:20:30;;;;;;;;;;;14.50;75.80;;;;;;5060449;28;20187;-68
2022/05/03 01:23:10;;;;;;;;;;;14.50;75.90;;;;;;5060487;28;20398;-69
2022/05/03 01:25:52;;;;;;;;;;;14.40;75.90;;;;;;5061672;28;19929;-68
2022/05/03 01:28:23;;;;;;;;;;;14.40;76.10;;;;;;5054212;28;19935;-68
2022/05/03 01:30:52;;;;;;;;;;;14.40;76.10;;;;;;5051842;28;20186;-68
2022/05/03 01:33:19;;;;;;;;;;;14.30;76.10;;;;;;5058430;28;20019;-68
2022/05/03 01:35:47;;;;;;;;;;;14.40;76.20;;;;;;5063069;28;20408;-68
2022/05/03 01:38:19;;;;;;;;;;;14.30;76.20;;;;;;5061278;28;20454;-68
2022/05/03 01:41:03;;;;;;;;;;;14.30;76.30;;;;;;5058861;28;19944;-68
2022/05/03 01:43:37;;;;;;;;;;;14.20;76.40;;;;;;5061965;28;20015;-68
2022/05/03 01:46:07;;;;;;;;;;;14.20;76.40;;;;;;5058676;28;19929;-68
2022/05/03 01:51:26;;;;;;;;;;;14.10;76.50;;;;;;5063179;28;20512;-67
2022/05/03 01:53:58;;;;;;;;;;;14.20;76.70;;;;;;5055688;28;19932;-68
2022/05/03 01:56:32;;;;;;;;;;;14.10;76.70;;;;;;5055354;28;20388;-68
2022/05/03 01:59:13;;;;;;;;;;;14.10;76.70;;;;;;5051803;28;19929;-67
2022/05/03 02:01:51;;;;;;;;;;;14.00;76.70;;;;;;5061477;28;20648;-68
2022/05/03 02:04:30;;;;;;;;;;;14.00;76.70;;;;;;5058721;28;19932;-68
2022/05/03 02:07:03;;;;;;;;;;;14.00;76.80;;;;;;5062708;28;19928;-69
2022/05/03 02:09:41;;;;;;;;;;;14.00;76.90;;;;;;5058673;28;19935;-67
2022/05/03 02:12:08;;;;;;;;;;;13.90;76.90;;;;;;5054144;28;19928;-69
2022/05/03 02:14:46;;;;;;;;;;;13.90;77.10;;;;;;5061155;28;19928;-67
2022/05/03 02:17:20;;;;;;;;;;;13.80;77.10;;;;;;5058763;28;19928;-66
2022/05/03 02:19:58;;;;;;;;;;;13.80;77.10;;;;;;5053611;28;20362;-68
2022/05/03 02:22:36;;;;;;;;;;;13.80;77.30;;;;;;5056694;28;20017;-68
2022/05/03 02:25:07;;;;;;;;;;;13.70;77.30;;;;;;5058394;28;19932;-68
2022/05/03 02:27:35;;;;;;;;;;;13.70;77.40;;;;;;5053232;28;19941;-68
2022/05/03 02:30:04;;;;;;;;;;;13.70;77.50;;;;;;5059955;28;19932;-67
2022/05/03 02:32:39;;;;;;;;;;;13.70;77.60;;;;;;5057947;28;19936;-69
2022/05/03 02:35:06;;;;;;;;;;;13.60;77.50;;;;;;5058015;28;19936;-68
2022/05/03 02:37:35;;;;;;;;;;;13.60;77.60;;;;;;5059794;28;20411;-69
2022/05/03 02:40:03;;;;;;;;;;;13.60;77.70;;;;;;5058988;28;19986;-68
2022/05/03 02:42:32;;;;;;;;;;;13.60;77.70;;;;;;5054810;28;20440;-68
2022/05/03 02:45:00;;;;;;;;;;;13.50;77.60;;;;;;5060976;28;19928;-69
2022/05/03 02:47:30;;;;;;;;;;;13.50;77.70;;;;;;5061135;28;19928;-68
2022/05/03 02:50:05;;;;;;;;;;;13.50;77.80;;;;;;5061659;28;19998;-68
2022/05/03 02:52:40;;;;;;;;;;;13.40;77.80;;;;;;5059730;28;19936;-69
2022/05/03 02:55:11;;;;;;;;;;;13.40;77.90;;;;;;5058011;28;19935;-68
2022/05/03 02:57:45;;;;;;;;;;;13.30;77.90;;;;;;5056685;28;19936;-67
2022/05/03 03:03:07;;;;;;;;;;;13.20;78.00;;;;;;5058364;28;19935;-68
2022/05/03 03:05:38;;;;;;;;;;;13.30;78.20;;;;;;5058250;28;20027;-67
2022/05/03 03:08:05;;;;;;;;;;;13.20;78.20;;;;;;5056407;28;19948;-68
2022/05/03 03:10:32;;;;;;;;;;;13.20;78.30;;;;;;5060523;28;19928;-68
2022/05/03 03:13:03;;;;;;;;;;;13.20;78.30;;;;;;5061421;28;20690;-68
2022/05/03 03:15:30;;;;;;;;;;;13.10;78.30;;;;;;5060332;28;19936;-68
2022/05/03 03:17:58;;;;;;;;;;;13.10;78.30;;;;;;5055701;28;20427;-68
2022/05/03 03:20:25;;;;;;;;;;;13.00;78.30;;;;;;5051777;28;19983;-69
2022/05/03 03:22:53;;;;;;;;;;;13.00;78.30;;;;;;5058611;28;19935;-68
2022/05/03 03:25:21;;;;;;;;;;;13.00;78.40;;;;;;5059066;28;19932;-68
2022/05/03 03:27:48;;;;;;;;;;;13.00;78.40;;;;;;5059862;28;19935;-68
2022/05/03 03:30:15;;;;;;;;;;;13.00;78.40;;;;;;5056855;28;19993;-69
2022/05/03 03:32:42;;;;;;;;;;;13.00;78.60;;;;;;5057964;28;19925;-68
2022/05/03 03:35:10;;;;;;;;;;;12.90;78.50;;;;;;5054024;28;19939;-68
2022/05/03 03:37:36;;;;;;;;;;;12.80;78.60;;;;;;5055146;28;19925;-69
2022/05/03 03:40:05;;;;;;;;;;;12.80;79.10;;;;;;5056672;28;20646;-68
2022/05/03 03:42:32;;;;;;;;;;;12.80;78.70;;;;;;5057336;28;19935;-67
2022/05/03 03:45:00;;;;;;;;;;;12.80;78.80;;;;;;5059335;28;19928;-67
2022/05/03 03:47:27;;;;;;;;;;;12.80;78.90;;;;;;5058084;28;20009;-68
2022/05/03 03:49:54;;;;;;;;;;;12.70;79.00;;;;;;5060441;28;19928;-68
2022/05/03 03:52:21;;;;;;;;;;;12.70;79.00;;;;;;5064882;28;20418;-67
2022/05/03 03:54:48;;;;;;;;;;;12.70;79.10;;;;;;5059237;28;19929;-68
2022/05/03 03:57:16;;;;;;;;;;;12.70;79.50;;;;;;5058356;28;19940;-68
2022/05/03 03:59:43;;;;;;;;;;;12.60;79.10;;;;;;5061476;28;19929;-67
2022/05/03 04:02:10;;;;;;;;;;;12.60;79.20;;;;;;5060622;28;20427;-67
2022/05/03 04:04:37;;;;;;;;;;;12.60;79.30;;;;;;5060822;28;19940;-68
2022/05/03 04:07:04;;;;;;;;;;;12.60;79.30;;;;;;5060293;28;20393;-67
2022/05/03 04:09:31;;;;;;;;;;;12.60;79.40;;;;;;5064994;28;19932;-67
2022/05/03 04:11:58;;;;;;;;;;;12.50;79.40;;;;;;5054197;28;19928;-67
2022/05/03 04:14:26;;;;;;;;;;;12.50;79.50;;;;;;5055496;28;19933;-68
2022/05/03 04:16:53;;;;;;;;;;;12.50;79.60;;;;;;5061719;28;20017;-67
2022/05/03 04:19:20;;;;;;;;;;;12.50;79.60;;;;;;5061652;28;19929;-68
2022/05/03 04:21:47;;;;;;;;;;;12.40;79.80;;;;;;5063032;28;19930;-68
2022/05/03 04:24:14;;;;;;;;;;;12.40;79.70;;;;;;5062412;28;19929;-67
2022/05/03 04:26:41;;;;;;;;;;;12.40;79.80;;;;;;5059836;28;19968;-67
2022/05/03 04:29:07;;;;;;;;;;;12.40;79.80;;;;;;5065327;28;20541;-67
2022/05/03 04:31:36;;;;;;;;;;;12.40;79.80;;;;;;5058410;28;20305;-68
2022/05/03 04:34:03;;;;;;;;;;;12.30;79.80;;;;;;5059857;28;19928;-68
2022/05/03 04:36:32;;;;;;;;;;;12.30;79.90;;;;;;5058356;28;19944;-67
2022/05/03 04:38:59;;;;;;;;;;;12.30;80.00;;;;;;5060195;28;19929;-67
2022/05/03 04:41:26;;;;;;;;;;;12.30;80.10;;;;;;5057408;28;20404;-69
2022/05/03 04:43:52;;;;;;;;;;;12.20;80.00;;;;;;5055339;28;19939;-68
2022/05/03 04:46:19;;;;;;;;;;;12.20;80.00;;;;;;5063856;28;19929;-68
2022/05/03 04:48:47;;;;;;;;;;;12.20;80.10;;;;;;5062093;28;21262;-68
2022/05/03 04:51:18;;;;;;;;;;;12.20;80.20;;;;;;5061148;28;19935;-68
2022/05/03 04:53:44;;;;;;;;;;;12.20;80.20;;;;;;5060815;28;20472;-66
2022/05/03 04:56:16;;;;;;;;;;;12.20;80.30;;;;;;5060276;28;20121;-67
2022/05/03 04:58:42;;;;;;;;;;;12.10;80.20;;;;;;5064352;28;19933;-66
2022/05/03 05:01:09;;;;;;;;;;;12.10;80.20;;;;;;5063199;28;20315;-68
2022/05/03 05:03:35;;;;;;;;;;;12.10;80.20;;;;;;5060898;28;20560;-69
2022/05/03 05:06:04;;;;;;;;;;;12.10;80.30;;;;;;5049685;28;19936;-68
2022/05/03 05:08:30;;;;;;;;;;;12.10;80.30;;;;;;5058512;28;19933;-67
2022/05/03 05:10:57;;;;;;;;;;;12.10;80.40;;;;;;5053088;28;19944;-68
2022/05/03 05:13:23;;;;;;;;;;;12.00;80.40;;;;;;5060629;28;19944;-68
2022/05/03 05:15:50;;;;;;;;;;;12.00;80.50;;;;;;5055994;28;20722;-68
2022/05/03 05:18:17;;;;;;;;;;;12.00;80.50;;;;;;5061036;28;19955;-68
2022/05/03 05:20:43;;;;;;;;;;;12.00;80.60;;;;;;5056541;28;20037;-68
2022/05/03 05:23:11;;;;;;;;;;;12.00;80.60;;;;;;5059312;28;19987;-68
2022/05/03 05:25:38;;;;;;;;;;;12.00;80.70;;;;;;5060210;28;19932;-68
2022/05/03 05:28:04;;;;;;;;;;;12.00;80.70;;;;;;5055133;28;19932;-68
2022/05/03 05:30:31;;;;;;;;;;;12.00;80.80;;;;;;5060537;28;19935;-68
2022/05/03 05:32:58;;;;;;;;;;;11.90;81.30;;;;;;5060530;28;19980;-68
2022/05/03 05:35:24;;;;;;;;;;;11.90;80.80;;;;;;5061525;28;19951;-69
2022/05/03 05:37:51;;;;;;;;;;;11.90;80.90;;;;;;5054543;28;19935;-68
2022/05/03 05:40:18;;;;;;;;;;;11.90;81.00;;;;;;5058332;28;20770;-68
2022/05/03 05:42:45;;;;;;;;;;;11.90;81.10;;;;;;5059145;28;19932;-67
2022/05/03 05:45:12;;;;;;;;;;;11.90;81.10;;;;;;5056290;28;19929;-67
2022/05/03 05:47:40;;;;;;;;;;;11.90;81.10;;;;;;5060141;28;19936;-68
2022/05/03 05:50:07;;;;;;;;;;;11.90;81.20;;;;;;5058499;28;19928;-68
2022/05/03 05:55:19;;;;;;;;;;;11.90;81.30;;;;;;5061295;28;20808;-68
2022/05/03 05:57:46;;;;;;;;;;;11.90;81.40;;;;;;5058429;28;20037;-67
2022/05/03 06:00:13;;;;;;;;;;;11.90;81.50;;;;;;5060706;28;19928;-67
2022/05/03 06:02:40;;;;;;;;;;;11.90;81.50;;;;;;5059121;28;19936;-65
2022/05/03 06:05:07;;;;;;;;;;;11.90;81.60;;;;;;5053761;28;19924;-68
2022/05/03 06:07:33;;;;;;;;;;;11.90;81.50;;;;;;5061820;28;19940;-67
2022/05/03 06:10:00;;;;;;;;;;;11.90;81.60;;;;;;5053536;28;19936;-68
2022/05/03 06:12:28;;;;;;;;;;;11.90;81.50;;;;;;5059756;28;19936;-68
2022/05/03 06:14:54;;;;;;;;;;;11.90;81.50;;;;;;5063316;28;19928;-68
2022/05/03 06:17:21;;;;;;;;;;;11.90;81.50;;;;;;5057592;28;19935;-67
2022/05/03 06:19:47;;;;;;;;;;;11.90;81.60;;;;;;5063129;28;19928;-68
2022/05/03 06:22:14;;;;;;;;;;;11.90;81.60;;;;;;5057930;28;19935;-68
2022/05/03 06:24:42;;;;;;;;;;;11.90;81.60;;;;;;5062529;28;20435;-68
2022/05/03 06:27:09;;;;;;;;;;;11.90;81.60;;;;;;5051845;28;19968;-69
2022/05/03 06:29:36;;;;;;;;;;;11.90;81.70;;;;;;5060098;28;19929;-68
2022/05/03 06:32:04;;;;;;;;;;;12.00;81.70;;;;;;5055804;28;20335;-67
2022/05/03 06:34:30;;;;;;;;;;;12.00;81.60;;;;;;5062136;28;20404;-68
2022/05/03 06:36:57;;;;;;;;;;;12.00;81.70;;;;;;5059457;28;19929;-68
2022/05/03 06:39:23;;;;;;;;;;;12.00;81.90;;;;;;5060014;28;19950;-68
2022/05/03 06:41:50;;;;;;;;;;;12.10;82.00;;;;;;5058995;28;19925;-68
2022/05/03 06:44:16;;;;;;;;;;;12.10;82.30;;;;;;5061600;28;19936;-69
2022/05/03 06:46:44;;;;;;;;;;;12.10;82.80;;;;;;5058250;28;19935;-68
2022/05/03 06:49:11;;;;;;;;;;;12.10;82.70;;;;;;5057330;28;19928;-68
2022/05/03 06:51:38;;;;;;;;;;;12.10;82.90;;;;;;5058217;28;19928;-68
2022/05/03 06:54:04;;;;;;;;;;;12.20;83.00;;;;;;5058142;28;19947;-68
2022/05/03 06:56:35;;;;;;;;;;;12.10;83.20;;;;;;5055679;28;19928;-69
2022/05/03 06:59:02;;;;;;;;;;;12.20;83.30;;;;;;5058387;28;20036;-68
2022/05/03 07:01:28;;;;;;;;;;;12.20;83.60;;;;;;5052642;28;20612;-68
2022/05/03 07:03:57;;;;;;;;;;;12.20;83.90;;;;;;5057161;28;19939;-68
2022/05/03 07:06:23;;;;;;;;;;;12.20;84.40;;;;;;5052541;28;20016;-66
2022/05/03 07:08:50;;;;;;;;;;;12.30;83.40;;;;;;5056406;28;19936;-67
2022/05/03 07:11:16;;;;;;;;;;;12.30;83.80;;;;;;5054525;28;19929;-68
2022/05/03 07:13:43;;;;;;;;;;;12.30;83.80;;;;;;5055000;28;19929;-67
2022/05/03 07:16:10;;;;;;;;;;;12.40;84.00;;;;;;5056390;28;20391;-68
2022/05/03 07:24:06;;;;;;;;;;;12.40;84.30;;;;;;5057791;28;20021;-69
2022/05/03 07:26:33;;;;;;;;;;;12.50;84.50;;;;;;5060326;28;20655;-68
2022/05/03 07:29:00;;;;;;;;;;;12.50;84.30;;;;;;5056899;28;19972;-68
2022/05/03 07:31:26;;;;;;;;;;;12.50;84.20;;;;;;5057070;28;19933;-68
2022/05/03 07:33:53;;;;;;;;;;;12.60;84.30;;;;;;5054485;28;19936;-68
2022/05/03 07:36:20;;;;;;;;;;;12.60;84.40;;;;;;5050656;28;19928;-69
2022/05/03 07:38:47;;;;;;;;;;;12.60;84.40;;;;;;5061385;28;19976;-68
2022/05/03 07:41:14;;;;;;;;;;;12.70;84.50;;;;;;5055131;28;19936;-68
2022/05/03 07:43:43;;;;;;;;;;;12.70;84.40;;;;;;5060640;28;19951;-69
2022/05/03 07:46:09;;;;;;;;;;;12.70;84.50;;;;;;5059230;28;19924;-68
2022/05/03 07:48:36;;;;;;;;;;;12.80;84.40;;;;;;5061851;28;19924;-69
2022/05/03 07:51:03;;;;;;;;;;;12.80;84.10;;;;;;5060573;28;19928;-69
2022/05/03 07:53:29;;;;;;;;;;;12.90;84.30;;;;;;5060666;28;19981;-68
2022/05/03 07:55:58;;;;;;;;;;;12.90;84.30;;;;;;5058547;28;19928;-69
2022/05/03 07:58:24;;;;;;;;;;;12.90;84.20;;;;;;5055060;28;19929;-69
2022/05/03 08:00:51;;;;;;;;;;;13.00;84.30;;;;;;5058965;28;19940;-68
2022/05/03 08:03:17;;;;;;;;;;;13.10;84.30;;;;;;5059649;28;20541;-67
2022/05/03 08:05:44;;;;;;;;;;;13.10;84.00;;;;;;5056066;28;20045;-68
2022/05/03 08:08:11;;;;;;;;;;;13.10;84.00;;;;;;5059863;28;19932;-67
2022/05/03 08:10:37;;;;;;;;;;;13.20;84.00;;;;;;5058697;28;19932;-68
2022/05/03 08:13:05;;;;;;;;;;;13.20;84.00;;;;;;5060074;28;19935;-69
2022/05/03 08:15:32;;;;;;;;;;;13.20;84.00;;;;;;5055465;28;19932;-68
2022/05/03 08:17:58;;;;;;;;;;;13.30;84.10;;;;;;5056985;28;19929;-67
2022/05/03 08:20:25;;;;;;;;;;;13.30;84.10;;;;;;5052579;28;19936;-68
2022/05/03 08:22:51;;;;;;;;;;;13.30;84.00;;;;;;5053593;28;19943;-69
2022/05/03 08:25:18;;;;;;;;;;;13.40;83.90;;;;;;5056458;28;19935;-68
2022/05/03 08:27:45;;;;;;;;;;;13.40;83.80;;;;;;5046117;28;19932;-69
2022/05/03 08:30:13;;;;;;;;;;;13.40;83.80;;;;;;5053610;28;19928;-69
2022/05/03 08:32:39;;;;;;;;;;;13.50;83.70;;;;;;5059511;28;19929;-67
2022/05/03 08:35:06;;;;;;;;;;;13.60;83.70;;;;;;5060263;28;20610;-69
2022/05/03 08:43:02;;;;;;;;;;;13.60;83.20;;;;;;5061378;28;19934;-68
2022/05/03 08:45:30;;;;;;;;;;;13.70;83.10;;;;;;5058465;28;19928;-67
2022/05/03 08:47:57;;;;;;;;;;;13.70;83.00;;;;;;5064036;28;19932;-69
2022/05/03 08:50:24;;;;;;;;;;;13.80;82.90;;;;;;5065626;28;19929;-69
2022/05/03 08:52:52;;;;;;;;;;;13.80;82.70;;;;;;5062771;28;19936;-68
2022/05/03 08:55:19;;;;;;;;;;;13.90;82.50;;;;;;5055945;28;19932;-68
2022/05/03 08:57:46;;;;;;;;;;;13.90;82.40;;;;;;5059874;28;19932;-69
2022/05/03 09:00:13;;;;;;;;;;;13.90;82.20;;;;;;5064213;28;20023;-68
2022/05/03 09:02:46;;;;;;;;;;;14.00;82.20;;;;;;5062746;28;20377;-68
2022/05/03 09:05:12;;;;;;;;;;;14.00;82.00;;;;;;5053003;28;19929;-67
2022/05/03 09:07:40;;;;;;;;;;;14.10;82.00;;;;;;5052092;28;19934;-68
2022/05/03 09:10:15;;;;;;;;;;;14.10;81.80;;;;;;5057607;28;20027;-69
2022/05/03 09:12:42;;;;;;;;;;;14.20;81.60;;;;;;5052995;28;19936;-69
2022/05/03 09:15:09;;;;;;;;;;;14.20;81.40;;;;;;5059557;28;20019;-68
2022/05/03 09:17:36;;;;;;;;;;;14.20;81.10;;;;;;5063477;28;19928;-69
2022/05/03 09:23:46;;;;;;;;;;;14.30;81.00;;;;;;5058138;28;19934;-69
2022/05/03 09:25:47;;;;;;;;;;;14.40;80.60;;;;;;5061515;28;19990;-69
2022/05/03 09:28:13;;;;;;;;;;;14.50;80.50;;;;;;5059311;28;19960;-68
2022/05/03 09:30:45;;;;;;;;;;;14.60;80.20;;;;;;5061910;28;19967;-68
2022/05/03 09:33:15;;;;;;;;;;;14.60;80.00;;;;;;5057507;28;19948;-69
2022/05/03 09:35:43;;;;;;;;;;;14.60;80.00;;;;;;5059543;28;19936;-68
2022/05/03 09:38:09;;;;;;;;;;;14.70;79.90;;;;;;5054919;28;20353;-69
2022/05/03 09:40:36;;;;;;;;;;;14.70;79.70;;;;;;5059119;28;19935;-69
2022/05/03 09:43:05;;;;;;;;;;;14.80;79.70;;;;;;5060568;28;19928;-67
2022/05/03 09:45:32;;;;;;;;;;;14.80;79.60;;;;;;5062279;28;19925;-68
2022/05/03 09:47:59;;;;;;;;;;;14.80;79.50;;;;;;5057714;28;19928;-68
2022/05/03 09:50:27;;;;;;;;;;;14.90;79.50;;;;;;5063421;28;19928;-69
2022/05/03 09:52:55;;;;;;;;;;;15.00;79.40;;;;;;5062501;28;20503;-69
2022/05/03 09:55:32;;;;;;;;;;;15.00;79.20;;;;;;5060857;28;19982;-69
2022/05/03 09:58:00;;;;;;;;;;;15.00;79.10;;;;;;5059100;28;20736;-68
2022/05/03 10:00:27;;;;;;;;;;;15.10;78.90;;;;;;5061343;28;19932;-68
2022/05/03 10:02:54;;;;;;;;;;;15.20;78.80;;;;;;5061779;28;19933;-69
2022/05/03 10:05:21;;;;;;;;;;;15.30;78.90;;;;;;5053424;28;19929;-68
2022/05/03 10:07:48;;;;;;;;;;;15.30;78.80;;;;;;5056977;28;19932;-68
2022/05/03 10:10:17;;;;;;;;;;;15.40;78.60;;;;;;5054652;28;19929;-67
2022/05/03 10:12:43;;;;;;;;;;;15.50;78.10;;;;;;5062156;28;19971;-69
2022/05/03 10:15:11;;;;;;;;;;;15.60;78.00;;;;;;5052775;28;19932;-68
2022/05/03 10:20:40;;;;;;;;;;;15.80;77.60;;;;;;5058649;28;19974;-68
2022/05/03 10:23:18;;;;;;;;;;;15.80;77.20;;;;;;5057824;28;19929;-69
2022/05/03 10:25:53;;;;;;;;;;;15.90;77.00;;;;;;5061371;28;19993;-69
2022/05/03 10:28:20;;;;;;;;;;;16.00;76.80;;;;;;5060036;28;20016;-68
2022/05/03 10:31:05;;;;;;;;;;;16.10;76.50;;;;;;5059999;28;19936;-69
2022/05/03 10:33:39;;;;;;;;;;;16.20;76.20;;;;;;5059980;28;19932;-69
2022/05/03 10:36:20;;;;;;;;;;;16.20;76.10;;;;;;5061370;28;19928;-68
2022/05/03 10:38:48;;;;;;;;;;;16.30;75.90;;;;;;5061209;28;19936;-68
2022/05/03 10:41:23;;;;;;;;;;;16.40;75.50;;;;;;5056924;28;19936;-66
2022/05/03 10:43:49;;;;;;;;;;;16.40;75.20;;;;;;5057813;28;19936;-68
2022/05/03 10:46:20;;;;;;;;;;;16.50;75.10;;;;;;5058458;28;19928;-69
2022/05/03 10:49:04;;;;;;;;;;;16.60;75.00;;;;;;5061729;28;22367;-69
2022/05/03 10:51:31;;;;;;;;;;;16.70;74.80;;;;;;5060580;28;20534;-68
2022/05/03 10:53:58;;;;;;;;;;;16.70;74.50;;;;;;5058612;28;19935;-69
2022/05/03 10:56:26;;;;;;;;;;;16.80;74.30;;;;;;5056393;28;19929;-69
2022/05/03 10:59:12;;;;;;;;;;;16.80;74.10;;;;;;5062310;28;19936;-67
2022/05/03 11:01:57;;;;;;;;;;;16.90;74.10;;;;;;5058264;28;19929;-68
2022/05/03 11:04:24;;;;;;;;;;;17.00;73.80;;;;;;5056644;28;19944;-67
2022/05/03 11:06:51;;;;;;;;;;;17.10;73.40;;;;;;5048843;28;19936;-68
2022/05/03 11:09:28;;;;;;;;;;;17.20;73.10;;;;;;5055237;28;19935;-68
2022/05/03 11:12:08;;;;;;;;;;;17.20;72.80;;;;;;5048952;28;19929;-68
2022/05/03 11:14:45;;;;;;;;;;;17.30;72.70;;;;;;5055523;28;19933;-69
2022/05/03 11:17:12;;;;;;;;;;;17.30;72.70;;;;;;5049247;28;19933;-69
2022/05/03 11:19:39;;;;;;;;;;;17.40;72.40;;;;;;5056622;28;20438;-69
2022/05/03 11:22:09;;;;;;;;;;;17.50;72.20;;;;;;5056176;28;19929;-69
2022/05/03 11:24:41;;;;;;;;;;;17.50;72.00;;;;;;5061222;28;19936;-70
2022/05/03 11:27:09;;;;;;;;;;;17.60;71.90;;;;;;5054527;28;19932;-71
2022/05/03 11:29:37;;;;;;;;;;;17.70;71.70;;;;;;5059394;28;19972;-69
2022/05/03 11:32:06;;;;;;;;;;;17.70;71.40;;;;;;5055687;28;19928;-67
2022/05/03 11:34:33;;;;;;;;;;;17.80;71.10;;;;;;5060996;28;19935;-69
2022/05/03 11:37:01;;;;;;;;;;;17.80;70.70;;;;;;5060965;28;19928;-69
2022/05/03 11:39:28;;;;;;;;;;;17.90;70.50;;;;;;5059278;28;20023;-69
2022/05/03 11:41:55;;;;;;;;;;;18.00;70.30;;;;;;5058447;28;19935;-68
2022/05/03 11:44:23;;;;;;;;;;;18.00;70.30;;;;;;5060323;28;19928;-68
2022/05/03 11:46:50;;;;;;;;;;;18.00;70.10;;;;;;5060222;28;19928;-68
2022/05/03 11:49:18;;;;;;;;;;;18.10;69.90;;;;;;5061972;28;19936;-69
2022/05/03 11:57:17;;;;;;;;;;;18.30;69.10;;;;;;5055986;28;20299;-69
2022/05/03 11:59:46;;;;;;;;;;;18.40;68.80;;;;;;5057397;28;19928;-68
2022/05/03 12:02:14;;;;;;;;;;;18.50;68.40;;;;;;5056279;28;20031;-68
2022/05/03 12:04:56;;;;;;;;;;;18.50;67.50;;;;;;5053751;28;19924;-68
2022/05/03 12:07:22;;;;;;;;;;;18.60;67.70;;;;;;5056743;28;19929;-69
2022/05/03 12:09:49;;;;;;;;;;;18.60;66.80;;;;;;5059564;28;19924;-69
2022/05/03 12:15:13;;;;;;;;;;;18.80;66.60;;;;;;5060715;28;20023;-67
2022/05/03 12:17:56;;;;;;;;;;;18.90;66.50;;;;;;5057808;28;19928;-69
2022/05/03 12:20:23;;;;;;;;;;;18.90;65.80;;;;;;5063680;28;19929;-69
2022/05/03 12:23:08;;;;;;;;;;;19.00;66.20;;;;;;5064172;28;20031;-68
2022/05/03 12:25:35;;;;;;;;;;;19.10;66.20;;;;;;5063965;28;19964;-69
2022/05/03 12:28:03;;;;;;;;;;;19.10;66.10;;;;;;5060246;28;19929;-68
2022/05/03 12:30:31;;;;;;;;;;;19.10;65.80;;;;;;5061235;28;19939;-68
2022/05/03 12:33:00;;;;;;;;;;;19.20;65.80;;;;;;5062478;28;20134;-69
2022/05/03 12:35:29;;;;;;;;;;;19.20;66.30;;;;;;5063231;28;19929;-69
2022/05/03 12:37:55;;;;;;;;;;;19.30;65.30;;;;;;5062132;28;19929;-69
2022/05/03 12:40:26;;;;;;;;;;;19.30;65.00;;;;;;5061839;28;19932;-69
2022/05/03 12:42:53;;;;;;;;;;;19.40;64.90;;;;;;5054079;28;19929;-69
2022/05/03 12:45:19;;;;;;;;;;;19.40;64.60;;;;;;5057298;28;20508;-67
2022/05/03 12:47:48;;;;;;;;;;;19.50;64.50;;;;;;5063680;28;20120;-69
2022/05/03 12:50:15;;;;;;;;;;;19.50;64.30;;;;;;5061109;28;19935;-68
2022/05/03 12:52:41;;;;;;;;;;;19.60;64.50;;;;;;5055995;28;19928;-69
2022/05/03 12:55:09;;;;;;;;;;;19.60;64.10;;;;;;5059164;28;19939;-68
2022/05/03 13:00:20;;;;;;;;;;;19.70;63.50;;;;;;5062746;28;20008;-69
2022/05/03 13:02:48;;;;;;;;;;;19.80;63.90;;;;;;5058603;28;19928;-68
2022/05/03 13:05:15;;;;;;;;;;;19.90;63.70;;;;;;5055691;28;19929;-69
2022/05/03 13:07:41;;;;;;;;;;;19.90;63.30;;;;;;5059786;28;19929;-69
2022/05/03 13:10:08;;;;;;;;;;;20.00;63.20;;;;;;5060999;28;19939;-69
2022/05/03 13:12:35;;;;;;;;;;;20.00;61.70;;;;;;5062617;28;19924;-69
2022/05/03 13:15:02;;;;;;;;;;;20.10;62.20;;;;;;5063095;28;19933;-69
2022/05/03 13:17:28;;;;;;;;;;;20.10;62.20;;;;;;5060988;28;20411;-69
2022/05/03 13:19:56;;;;;;;;;;;20.10;62.20;;;;;;5060697;28;20317;-69
2022/05/03 13:22:23;;;;;;;;;;;20.20;62.30;;;;;;5061893;28;20640;-68
2022/05/03 13:24:49;;;;;;;;;;;20.30;61.90;;;;;;5056393;28;20015;-69
2022/05/03 13:27:16;;;;;;;;;;;20.30;61.60;;;;;;5063793;28;20148;-68
2022/05/03 13:29:42;;;;;;;;;;;20.30;60.90;;;;;;5063525;28;20015;-69
2022/05/03 13:32:09;;;;;;;;;;;20.40;60.60;;;;;;5060468;28;19935;-69
2022/05/03 13:34:36;;;;;;;;;;;20.50;60.70;;;;;;5056622;28;19939;-69
2022/05/03 13:42:32;;;;;;;;;;;20.80;60.70;;;;;;5059965;28;19931;-69
2022/05/03 13:44:59;;;;;;;;;;;20.90;60.60;;;;;;5057314;28;19928;-69
2022/05/03 13:47:26;;;;;;;;;;;21.00;60.10;;;;;;5057892;28;19928;-68
2022/05/03 13:49:53;;;;;;;;;;;21.10;59.90;;;;;;5059014;28;19963;-68
2022/05/03 13:52:21;;;;;;;;;;;21.10;59.60;;;;;;5063194;28;19928;-69
2022/05/03 13:54:48;;;;;;;;;;;21.20;59.40;;;;;;5057445;28;19928;-68
2022/05/03 13:57:14;;;;;;;;;;;21.20;59.40;;;;;;5058180;28;19939;-67
2022/05/03 13:59:41;;;;;;;;;;;21.30;59.20;;;;;;5060131;28;19925;-68
2022/05/03 14:02:09;;;;;;;;;;;21.30;59.10;;;;;;5060771;28;20933;-69
2022/05/03 14:04:35;;;;;;;;;;;21.30;59.10;;;;;;5053636;28;20107;-69
2022/05/03 14:07:02;;;;;;;;;;;21.30;59.10;;;;;;5052608;28;20418;-69
2022/05/03 14:09:30;;;;;;;;;;;21.30;59.10;;;;;;5062539;28;19928;-67
2022/05/03 14:11:58;;;;;;;;;;;21.30;59.00;;;;;;5060054;28;20419;-69
2022/05/03 14:14:24;;;;;;;;;;;21.30;59.00;;;;;;5054571;28;19929;-69
2022/05/03 14:16:51;;;;;;;;;;;21.30;59.10;;;;;;5062614;28;19932;-69
2022/05/03 14:19:17;;;;;;;;;;;21.30;59.10;;;;;;5062812;28;19928;-69
2022/05/03 14:21:45;;;;;;;;;;;21.30;59.30;;;;;;5061668;28;19979;-68
2022/05/03 14:24:12;;;;;;;;;;;21.30;59.20;;;;;;5063625;28;19924;-69
2022/05/03 14:26:40;;;;;;;;;;;21.30;59.20;;;;;;5060886;28;19959;-69
2022/05/03 14:29:07;;;;;;;;;;;21.30;59.30;;;;;;5063678;28;20320;-69
2022/05/03 14:31:35;;;;;;;;;;;21.20;59.20;;;;;;5058173;28;19936;-69
2022/05/03 14:34:01;;;;;;;;;;;21.20;59.20;;;;;;5055325;28;19938;-69
2022/05/03 14:36:28;;;;;;;;;;;21.30;59.40;;;;;;5058586;28;19935;-69
2022/05/03 14:38:55;;;;;;;;;;;21.20;59.40;;;;;;5061412;28;19954;-68
2022/05/03 14:41:21;;;;;;;;;;;21.20;59.30;;;;;;5059763;28;19928;-69
2022/05/03 14:43:49;;;;;;;;;;;21.20;59.20;;;;;;5061131;28;19940;-68
2022/05/03 14:46:16;;;;;;;;;;;21.20;59.10;;;;;;5055252;28;19928;-69
2022/05/03 14:48:42;;;;;;;;;;;21.20;59.20;;;;;;5053494;28;19928;-67
2022/05/03 14:51:09;;;;;;;;;;;21.20;59.20;;;;;;5062079;28;19933;-69
2022/05/03 14:53:35;;;;;;;;;;;21.20;59.20;;;;;;5057404;28;19935;-69
2022/05/03 15:04:30;;;;;;;;;;;21.20;59.30;;;;;;5036131;28;19935;-69
2022/05/03 15:06:56;;;;;;;;;;;21.20;59.40;;;;;;5056909;28;19933;-69
2022/05/03 15:09:23;;;;;;;;;;;21.20;59.30;;;;;;5061859;28;19928;-68
2022/05/03 15:11:49;;;;;;;;;;;21.20;59.20;;;;;;5057737;28;19971;-68
2022/05/03 15:14:17;;;;;;;;;;;21.20;59.30;;;;;;5056984;28;19929;-69